Frank T. Stegbauer — WDE5944 — position and weather

sailwx.info

Track history (hours):
 
Tides and Currents Weather Stations Pressure Air Temp Water Temp Dewpoint Dewpoint Depression Visibility Wind Speed Wind Dir Waves Ship Positions

Frank T. Stegbauer

Owner: SOUTHERN TOWING COMPANY LLC., Memphis, TN. More information available from US FCC via Universal Licensing System and Coast Guard Vessel Documentation Center.

Last reported at 2017-Feb-19 06:33 UTC. Time now 2017-Feb-28 17:23 UTC.
Position N 32°36' W 091°09'.
Warning: this ship's position is 9 days out of date.

Length 35 m; draft 3 m.

Type: Tug. MMSI: 367373640.

Date/timePositionNaut miles runAvg speedWind from/ knotsBaromVisibWave heightAir tempDewpointWater temp
2017-Feb-19 06:33N 32°36' W 091°09'5 5.1
2017-Feb-19 05:30N 32°32' W 091°06'5 5.1
2017-Feb-19 04:33N 32°27' W 091°05'5 5.3
2017-Feb-19 03:33N 32°24' W 090°59'3 2.9
2017-Feb-19 02:33N 32°21' W 090°60'4 4.2
2017-Feb-19 01:33N 32°21' W 090°55'4 4.4
2017-Feb-19 00:33N 32°17' W 090°57'6 6.2
2017-Feb-18 23:33N 32°11' W 090°60'4 4.4
2017-Feb-18 22:33N 32°07' W 091°03'  
2017-Feb-14 15:29N 32°06' W 091°06'7 7.2
2017-Feb-14 14:32N 32°11' W 090°60'1111.0
2017-Feb-14 13:34N 32°20' W 090°54'8 7.9
2017-Feb-14 12:34N 32°25' W 091°01'9 8.5
2017-Feb-14 11:33N 32°33' W 091°06'  
Track history (hours):
 
Tides and Currents Weather Stations Pressure Air Temp Water Temp Dewpoint Dewpoint Depression Visibility Wind Speed Wind Dir Waves Ship Positions

Frank T. Stegbauer

Owner: SOUTHERN TOWING COMPANY LLC., Memphis, TN. More information available from US FCC via Universal Licensing System and Coast Guard Vessel Documentation Center.

Last reported at 2017-Feb-19 06:33 UTC. Time now 2017-Feb-28 17:23 UTC.
Position N 32°36' W 091°09'.
Warning: this ship's position is 9 days out of date.

Length 35 m; draft 3 m.

Type: Tug. MMSI: 367373640.

Date/timePositionNaut miles runAvg speedWind from/ knotsBaromVisibWave heightAir tempDewpointWater temp
2017-Feb-19 06:33N 32°36' W 091°09'5 5.1
2017-Feb-19 05:30N 32°32' W 091°06'5 5.1
2017-Feb-19 04:33N 32°27' W 091°05'5 5.3
2017-Feb-19 03:33N 32°24' W 090°59'3 2.9
2017-Feb-19 02:33N 32°21' W 090°60'4 4.2
2017-Feb-19 01:33N 32°21' W 090°55'4 4.4
2017-Feb-19 00:33N 32°17' W 090°57'6 6.2
2017-Feb-18 23:33N 32°11' W 090°60'4 4.4
2017-Feb-18 22:33N 32°07' W 091°03'  
2017-Feb-14 15:29N 32°06' W 091°06'7 7.2
2017-Feb-14 14:32N 32°11' W 090°60'1111.0
2017-Feb-14 13:34N 32°20' W 090°54'8 7.9
2017-Feb-14 12:34N 32°25' W 091°01'9 8.5
2017-Feb-14 11:33N 32°33' W 091°06'  

Dump ship's entire track history